.
WxDataArchive / Data Records for 2008-05-11
2008-05-10 May 2008 2008-05-12

Data Records for Sunday, 11 May 2008

Time	Temp	Chill	HIndex	Humid	Dewpt	 Wind 	HiWind	WindDir	Rain 	Barom 
-----	----	-----	------	-----	-----	------	------	-------	-----	----- 
00:00	56.6	56.6	56.6	62	43.7	2	4	90	0.00	29.642 
00:05	56.6	56.6	56.6	62	43.7	3	6	112	0.00	29.638 
00:10	56.5	56.5	56.5	61	43.2	3	7	90	0.00	29.630 
00:15	56.5	56.5	56.5	60	42.8	4	9	90	0.00	29.625 
00:20	56.5	56.5	56.5	61	43.2	2	6	90	0.00	29.624 
00:25	56.3	56.3	56.3	61	43.0	2	7	90	0.00	29.623 
00:30	56.0	56.0	56.0	62	43.2	1	4	112	0.00	29.617 
00:35	55.7	55.7	55.7	63	43.3	1	4	112	0.00	29.614 
00:40	55.6	55.6	55.6	64	43.6	1	5	112	0.00	29.614 
00:45	55.4	55.4	55.4	64	43.4	2	4	90	0.00	29.611 
00:50	55.4	55.4	55.4	63	43.0	2	6	90	0.00	29.609 
00:55	55.6	55.6	55.6	63	43.2	3	10	112	0.00	29.608 
01:00	55.6	55.6	55.6	62	42.8	2	6	90	0.00	29.598 
01:05	55.6	55.6	55.6	63	43.2	2	6	90	0.00	29.594 
01:10	55.6	55.6	55.6	63	43.2	3	7	90	0.00	29.593 
01:15	55.7	55.7	55.7	62	42.9	3	7	90	0.00	29.589 
01:20	55.7	55.7	55.7	63	43.3	2	4	90	0.00	29.582 
01:25	55.6	55.6	55.6	63	43.2	3	6	90	0.00	29.578 
01:30	55.6	55.6	55.6	63	43.2	3	7	90	0.00	29.573 
01:35	55.4	55.4	55.4	64	43.4	2	5	90	0.00	29.571 
01:40	55.3	55.3	55.3	64	43.3	3	6	112	0.00	29.569 
01:45	55.3	55.3	55.3	64	43.3	3	7	90	0.00	29.564 
01:50	55.1	55.1	55.1	64	43.1	2	6	112	0.00	29.565 
01:55	55.1	55.1	55.1	65	43.5	2	4	112	0.00	29.564 
02:00	55.0	55.0	55.0	65	43.5	2	7	112	0.00	29.562 
02:05	54.8	54.8	54.8	65	43.3	2	6	90	0.00	29.562 
02:10	54.8	54.8	54.8	66	43.7	2	5	90	0.00	29.565 
02:15	54.7	54.7	54.7	66	43.6	2	4	90	0.00	29.565 
02:20	54.7	54.7	54.7	67	44.0	1	4	90	0.00	29.565 
02:25	54.7	54.7	54.7	67	44.0	2	5	90	0.00	29.565 
02:30	54.7	54.7	54.7	67	44.0	2	4	90	0.00	29.563 
02:35	54.5	54.5	54.5	68	44.2	1	2	90	0.00	29.562 
02:40	54.4	54.4	54.4	68	44.1	1	3	112	0.00	29.554 
02:45	54.4	54.4	54.4	69	44.4	2	4	112	0.00	29.548 
02:50	54.4	54.4	54.4	69	44.4	3	6	112	0.00	29.536 
02:55	54.2	54.2	54.2	69	44.3	2	4	90	0.00	29.533 
03:00	54.2	54.2	54.2	69	44.3	1	3	112	0.00	29.533 
03:05	54.2	54.2	54.2	70	44.6	1	3	90	0.00	29.523 
03:10	54.1	54.1	54.1	71	44.9	2	4	90	0.00	29.516 
03:15	54.1	54.1	54.1	72	45.3	2	5	90	0.00	29.508 
03:20	54.1	54.1	54.1	73	45.6	1	5	112	0.00	29.501 
03:25	53.9	53.9	53.9	74	45.8	1	3	112	0.00	29.498 
03:30	53.6	53.6	53.6	76	46.2	2	6	112	0.00	29.485 
03:35	53.5	53.5	53.5	76	46.1	2	4	112	0.00	29.482 
03:40	53.3	53.3	53.3	77	46.3	2	5	112	0.00	29.477 
03:45	53.3	53.3	53.3	77	46.3	1	3	90	0.00	29.470 
03:50	53.2	53.2	53.2	77	46.2	1	4	112	0.00	29.464 
03:55	53.2	53.2	53.2	78	46.5	1	4	112	0.00	29.456 
04:00	53.1	53.1	53.1	78	46.4	3	7	90	0.00	29.451 
04:05	52.9	52.9	52.9	80	46.9	2	5	90	0.00	29.443 
04:10	52.5	52.5	52.5	82	47.2	2	5	90	0.01	29.438 
04:15	52.2	52.2	52.2	83	47.2	2	5	90	0.00	29.428 
04:20	51.9	51.9	51.9	84	47.2	2	8	90	0.00	29.426 
04:25	51.7	51.7	51.7	84	47.0	2	4	112	0.00	29.421 
04:30	51.6	51.6	51.6	85	47.2	3	7	112	0.00	29.410 
04:35	51.6	51.6	51.6	84	46.9	3	5	90	0.00	29.407 
04:40	51.6	51.6	51.6	84	46.9	3	8	90	0.00	29.400 
04:45	51.6	51.6	51.6	84	46.9	3	10	90	0.00	29.393 
04:50	51.6	51.6	51.6	84	46.9	3	8	90	0.00	29.391 
04:55	51.6	51.6	51.6	84	46.9	4	7	90	0.00	29.381 
05:00	51.7	51.7	51.7	84	47.0	4	7	90	0.01	29.377 
05:05	51.7	51.7	51.7	84	47.0	3	6	90	0.00	29.378 
05:10	51.9	51.9	51.9	84	47.2	4	9	90	0.00	29.371 
05:15	51.9	51.9	51.9	84	47.2	3	9	90	0.00	29.361 
05:20	51.7	51.7	51.7	84	47.0	4	9	90	0.00	29.350 
05:25	51.7	51.7	51.7	84	47.0	4	7	112	0.01	29.345 
05:30	51.7	51.7	51.7	84	47.0	5	9	112	0.00	29.335 
05:35	51.7	51.7	51.7	85	47.3	3	7	90	0.00	29.334 
05:40	51.6	51.6	51.6	85	47.2	4	9	112	0.01	29.332 
05:45	51.6	51.6	51.6	86	47.5	3	8	112	0.00	29.328 
05:50	51.4	51.4	51.4	87	47.7	4	7	112	0.00	29.320 
05:55	51.3	51.3	51.3	88	47.9	4	9	112	0.01	29.315 
06:00	51.1	51.1	51.1	88	47.7	4	13	90	0.00	29.313 
06:05	51.1	51.1	51.1	89	48.0	4	11	112	0.01	29.306 
06:10	51.0	51.0	51.0	89	47.9	5	10	90	0.00	29.303 
06:15	51.0	51.0	51.0	90	48.2	5	10	112	0.00	29.302 
06:20	51.0	51.0	51.0	89	47.9	5	12	90	0.00	29.297 
06:25	51.0	51.0	51.0	90	48.2	3	9	90	0.01	29.291 
06:30	51.0	51.0	51.0	89	47.9	4	11	90	0.00	29.288 
06:35	51.0	51.0	51.0	89	47.9	5	13	112	0.00	29.282 
06:40	51.0	51.0	51.0	89	47.9	4	9	112	0.00	29.276 
06:45	51.0	51.0	51.0	89	47.9	5	10	112	0.00	29.271 
06:50	51.0	51.0	51.0	90	48.2	4	9	90	0.00	29.269 
06:55	50.8	50.8	50.8	90	48.0	4	8	90	0.00	29.260 
07:00	50.7	50.7	50.7	90	47.9	4	14	112	0.01	29.255 
07:05	50.7	50.7	50.7	91	48.2	4	11	90	0.01	29.254 
07:10	50.5	50.5	50.5	91	48.0	4	10	90	0.00	29.241 
07:15	50.4	50.4	50.4	91	47.9	5	13	90	0.01	29.231 
07:20	50.2	50.2	50.2	91	47.7	6	12	90	0.00	29.232 
07:25	50.2	50.2	50.2	91	47.7	5	14	90	0.00	29.222 
07:30	50.1	50.1	50.1	91	47.6	6	15	90	0.01	29.214 
07:35	50.1	50.1	50.1	92	47.9	5	10	112	0.01	29.208 
07:40	49.9	47.5	49.9	92	47.7	6	14	112	0.01	29.207 
07:45	49.8	47.4	49.8	93	47.9	6	15	112	0.02	29.195 
07:50	49.6	47.7	49.6	93	47.7	5	11	90	0.01	29.193 
07:55	49.6	47.7	49.6	93	47.7	5	13	112	0.01	29.190 
08:00	49.5	47.6	49.5	94	47.8	5	11	112	0.02	29.186 
08:05	49.4	46.5	49.4	94	47.7	7	16	90	0.00	29.179 
08:10	49.2	46.7	49.2	94	47.5	6	13	112	0.00	29.170 
08:15	49.4	47.0	49.4	94	47.7	6	14	90	0.00	29.170 
08:20	49.4	47.0	49.4	94	47.7	6	12	90	0.00	29.175 
08:25	49.4	47.5	49.4	94	47.7	5	11	112	0.00	29.165 
08:30	49.5	46.6	49.5	94	47.8	7	15	112	0.00	29.163 
08:35	49.5	47.6	49.5	94	47.8	5	11	112	0.00	29.162 
08:40	49.6	47.2	49.6	93	47.7	6	12	112	0.01	29.162 
08:45	49.6	47.2	49.6	93	47.7	6	11	112	0.00	29.161 
08:50	49.8	47.4	49.8	93	47.9	6	14	90	0.00	29.160 
08:55	49.8	48.6	49.8	93	47.9	4	9	112	0.00	29.161 
09:00	49.9	48.1	49.9	93	48.0	5	11	112	0.00	29.165 
09:05	49.9	48.1	49.9	93	48.0	5	11	112	0.01	29.162 
09:10	49.9	47.5	49.9	93	48.0	6	16	112	0.00	29.165 
09:15	50.1	50.1	50.1	93	48.2	4	10	112	0.00	29.163 
09:20	50.1	50.1	50.1	93	48.2	4	10	112	0.01	29.161 
09:25	50.2	50.2	50.2	93	48.3	5	8	112	0.01	29.158 
09:30	50.1	50.1	50.1	94	48.4	4	9	112	0.00	29.149 
09:35	50.4	50.4	50.4	94	48.7	5	13	112	0.00	29.147 
09:40	50.8	50.8	50.8	94	49.1	5	14	112	0.00	29.146 
09:45	51.0	51.0	51.0	94	49.3	5	13	90	0.01	29.145 
09:50	51.0	51.0	51.0	94	49.3	7	17	112	0.01	29.144 
09:55	51.3	51.3	51.3	94	49.6	3	7	112	0.02	29.142 
10:00	51.3	51.3	51.3	94	49.6	2	5	112	0.01	29.131 
10:05	51.6	51.6	51.6	94	49.9	2	7	90	0.01	29.126 
10:10	52.2	52.2	52.2	94	50.5	2	6	90	0.00	29.125 
10:15	52.6	52.6	52.6	95	51.2	3	6	112	0.00	29.119 
10:20	52.9	52.9	52.9	95	51.5	4	8	112	0.01	29.114 
10:25	53.1	53.1	53.1	94	51.4	4	10	112	0.00	29.116 
10:30	53.2	53.2	53.2	94	51.5	4	11	90	0.00	29.114 
10:35	53.5	53.5	53.5	94	51.8	3	7	90	0.00	29.111 
10:40	53.9	53.9	53.9	94	52.2	3	7	112	0.00	29.105 
10:45	54.1	54.1	54.1	93	52.1	3	10	112	0.00	29.111 
10:50	53.9	53.9	53.9	91	51.3	3	6	90	0.00	29.117 
10:55	53.9	53.9	53.9	91	51.3	1	3	112	0.00	29.129 
11:00	53.8	53.8	53.8	89	50.6	2	5	90	0.00	29.142 
11:05	53.5	53.5	53.5	89	50.3	2	4	112	0.00	29.146 
11:10	53.6	53.6	53.6	89	50.4	2	6	90	0.00	29.146 
11:15	53.8	53.8	53.8	88	50.3	2	5	112	0.00	29.157 
11:20	53.6	53.6	53.6	87	49.8	2	9	112	0.00	29.160 
11:25	53.6	53.6	53.6	86	49.5	2	5	112	0.00	29.160 
11:30	53.9	53.9	53.9	87	50.1	2	6	112	0.00	29.161 
11:35	53.9	53.9	53.9	87	50.1	2	5	90	0.00	29.163 
11:40	53.6	53.6	53.6	86	49.5	2	7	112	0.00	29.164 
11:45	53.5	53.5	53.5	84	48.8	3	6	112	0.00	29.168 
11:50	53.5	53.5	53.5	85	49.1	2	7	112	0.00	29.168 
11:55	53.6	53.6	53.6	84	48.9	2	6	90	0.00	29.166 
12:00	53.8	53.8	53.8	83	48.8	2	5	112	0.00	29.168 
12:05	54.1	54.1	54.1	83	49.1	2	6	90	0.00	29.168 
12:10	54.5	54.5	54.5	83	49.4	3	5	112	0.00	29.171 
12:15	54.8	54.8	54.8	81	49.1	2	4	135	0.00	29.173 
12:20	54.8	54.8	54.8	81	49.1	2	5	112	0.00	29.175 
12:25	54.8	54.8	54.8	82	49.4	2	4	68	0.00	29.175 
12:30	54.7	54.7	54.7	82	49.3	1	3	90	0.00	29.172 
12:35	54.5	54.5	54.5	83	49.4	2	5	112	0.00	29.174 
12:40	54.4	54.4	54.4	85	50.0	0	3	112	0.01	29.174 
12:45	54.4	54.4	54.4	87	50.6	0	2	112	0.00	29.174 
12:50	54.2	54.2	54.2	87	50.4	1	3	112	0.00	29.177 
12:55	54.1	54.1	54.1	88	50.6	1	2	112	0.00	29.178 
13:00	53.9	53.9	53.9	88	50.4	1	3	112	0.00	29.179 
13:05	54.2	54.2	54.2	89	51.0	0	1	112	0.00	29.181 
13:10	54.4	54.4	54.4	89	51.2	1	4	112	0.00	29.182 
13:15	54.2	54.2	54.2	88	50.7	2	4	112	0.00	29.183 
13:20	54.2	54.2	54.2	88	50.7	1	2	112	0.00	29.186 
13:25	54.1	54.1	54.1	88	50.6	1	4	112	0.01	29.191 
13:30	53.8	53.8	53.8	89	50.6	1	3	135	0.01	29.193 
13:35	53.5	53.5	53.5	90	50.6	0	2	112	0.00	29.194 
13:40	53.6	53.6	53.6	91	51.0	1	3	112	0.01	29.195 
13:45	53.3	53.3	53.3	91	50.7	1	4	112	0.01	29.198 
13:50	53.2	53.2	53.2	92	50.9	1	3	158	0.00	29.201 
13:55	53.1	53.1	53.1	92	50.8	1	3	112	0.00	29.206 
14:00	53.1	53.1	53.1	92	50.8	0	2	112	0.00	29.208 
14:05	53.2	53.2	53.2	92	50.9	1	3	112	0.00	29.210 
14:10	53.3	53.3	53.3	93	51.3	1	3	112	0.01	29.211 
14:15	53.2	53.2	53.2	93	51.2	2	4	90	0.00	29.212 
14:20	53.2	53.2	53.2	93	51.2	1	5	90	0.00	29.214 
14:25	53.1	53.1	53.1	93	51.1	2	4	112	0.00	29.216 
14:30	53.1	53.1	53.1	93	51.1	1	3	112	0.00	29.217 
14:35	52.9	52.9	52.9	93	50.9	1	3	112	0.00	29.221 
14:40	53.1	53.1	53.1	93	51.1	0	1	112	0.00	29.224 
14:45	52.9	52.9	52.9	93	50.9	0	1	112	0.00	29.226 
14:50	53.1	53.1	53.1	93	51.1	0	1	112	0.01	29.227 
14:55	53.3	53.3	53.3	94	51.6	0	1	112	0.00	29.227 
15:00	53.6	53.6	53.6	94	51.9	0	1	112	0.00	29.225 
15:05	53.8	53.8	53.8	93	51.8	0	1	112	0.00	29.228 
15:10	53.8	53.8	53.8	93	51.8	0	2	112	0.00	29.231 
15:15	53.8	53.8	53.8	93	51.8	0	2	112	0.00	29.233 
15:20	53.9	53.9	53.9	92	51.6	0	0	---	0.00	29.235 
15:25	54.1	54.1	54.1	92	51.8	0	2	112	0.00	29.239 
15:30	54.1	54.1	54.1	92	51.8	0	1	112	0.00	29.239 
15:35	54.2	54.2	54.2	92	51.9	0	1	112	0.00	29.241 
15:40	54.2	54.2	54.2	91	51.6	0	2	112	0.00	29.243 
15:45	54.1	54.1	54.1	91	51.5	0	2	112	0.00	29.247 
15:50	53.9	53.9	53.9	91	51.3	0	2	202	0.00	29.253 
15:55	53.9	53.9	53.9	92	51.6	0	2	202	0.00	29.256 
16:00	53.8	53.8	53.8	92	51.5	0	1	202	0.00	29.258 
16:05	53.5	53.5	53.5	92	51.2	0	1	202	0.00	29.259 
16:10	53.6	53.6	53.6	92	51.3	0	1	202	0.00	29.263 
16:15	53.6	53.6	53.6	92	51.3	0	1	202	0.00	29.270 
16:20	53.3	53.3	53.3	92	51.0	0	2	0	0.01	29.274 
16:25	53.1	53.1	53.1	92	50.8	1	5	0	0.00	29.277 
16:30	52.9	52.9	52.9	93	50.9	1	3	0	0.00	29.280 
16:35	52.8	52.8	52.8	93	50.8	0	4	315	0.00	29.285 
16:40	52.9	52.9	52.9	93	50.9	0	1	315	0.00	29.291 
16:45	52.9	52.9	52.9	94	51.2	1	3	270	0.00	29.293 
16:50	53.1	53.1	53.1	94	51.4	0	1	270	0.00	29.298 
16:55	53.1	53.1	53.1	94	51.4	1	3	158	0.00	29.303 
17:00	53.1	53.1	53.1	94	51.4	0	4	315	0.00	29.307 
17:05	52.9	52.9	52.9	93	50.9	1	3	338	0.00	29.313 
17:10	52.8	52.8	52.8	93	50.8	1	4	292	0.00	29.319 
17:15	52.6	52.6	52.6	93	50.6	1	3	292	0.00	29.323 
17:20	52.5	52.5	52.5	93	50.5	1	4	315	0.00	29.325 
17:25	52.3	52.3	52.3	93	50.3	1	5	315	0.00	29.331 
17:30	52.2	52.2	52.2	93	50.2	1	4	270	0.00	29.337 
17:35	52.0	52.0	52.0	92	49.7	1	7	0	0.00	29.340 
17:40	51.9	51.9	51.9	92	49.6	1	5	0	0.01	29.345 
17:45	51.6	51.6	51.6	92	49.4	1	4	338	0.00	29.351 
17:50	51.4	51.4	51.4	93	49.4	1	4	315	0.00	29.356 
17:55	51.3	51.3	51.3	93	49.3	1	5	292	0.00	29.357 
18:00	51.0	51.0	51.0	93	49.0	1	4	338	0.01	29.364 
18:05	51.0	51.0	51.0	93	49.0	1	4	292	0.00	29.369 
18:10	50.7	50.7	50.7	93	48.7	2	6	315	0.00	29.372 
18:15	50.5	50.5	50.5	93	48.6	2	4	292	0.01	29.379 
18:20	50.5	50.5	50.5	93	48.6	1	6	315	0.00	29.384 
18:25	50.4	50.4	50.4	93	48.5	2	5	292	0.00	29.390 
18:30	50.2	50.2	50.2	93	48.3	2	6	315	0.01	29.393 
18:35	50.1	50.1	50.1	93	48.2	2	6	315	0.00	29.400 
18:40	49.9	49.9	49.9	93	48.0	1	4	315	0.00	29.405 
18:45	49.9	49.9	49.9	93	48.0	2	7	292	0.00	29.407 
18:50	49.8	49.8	49.8	93	47.9	1	5	315	0.01	29.411 
18:55	49.8	49.8	49.8	93	47.9	1	4	315	0.00	29.415 
19:00	49.8	49.8	49.8	93	47.9	1	3	315	0.00	29.420 
19:05	49.8	49.8	49.8	93	47.9	1	4	292	0.00	29.422 
19:10	49.6	49.6	49.6	93	47.7	1	4	292	0.00	29.427 
19:15	49.6	49.6	49.6	93	47.7	2	7	315	0.00	29.432 
19:20	49.6	49.6	49.6	93	47.7	1	6	338	0.01	29.436 
19:25	49.5	49.5	49.5	93	47.6	2	7	315	0.00	29.438 
19:30	49.5	49.5	49.5	93	47.6	2	10	270	0.00	29.440 
19:35	49.5	49.5	49.5	93	47.6	2	5	315	0.00	29.443 
19:40	49.5	49.5	49.5	93	47.6	1	6	292	0.00	29.449 
19:45	49.5	49.5	49.5	93	47.6	2	5	315	0.00	29.452 
19:50	49.5	49.5	49.5	93	47.6	2	5	292	0.00	29.454 
19:55	49.5	49.5	49.5	93	47.6	1	5	292	0.00	29.457 
20:00	49.5	49.5	49.5	93	47.6	1	4	315	0.00	29.463 
20:05	49.5	49.5	49.5	93	47.6	1	6	315	0.00	29.467 
20:10	49.5	49.5	49.5	93	47.6	1	4	292	0.00	29.469 
20:15	49.5	49.5	49.5	93	47.6	1	5	315	0.01	29.475 
20:20	49.5	49.5	49.5	93	47.6	2	6	292	0.00	29.479 
20:25	49.5	49.5	49.5	93	47.6	2	7	292	0.00	29.483 
20:30	49.5	49.5	49.5	93	47.6	2	10	315	0.00	29.485 
20:35	49.5	49.5	49.5	93	47.6	1	4	315	0.00	29.489 
20:40	49.5	49.5	49.5	93	47.6	1	3	270	0.00	29.494 
20:45	49.5	49.5	49.5	92	47.3	2	6	292	0.00	29.498 
20:50	49.5	49.5	49.5	92	47.3	2	4	292	0.00	29.501 
20:55	49.5	49.5	49.5	92	47.3	2	6	315	0.00	29.504 
21:00	49.5	49.5	49.5	92	47.3	2	5	292	0.00	29.510 
21:05	49.5	49.5	49.5	92	47.3	2	6	292	0.00	29.515 
21:10	49.6	49.6	49.6	92	47.4	1	4	338	0.00	29.517 
21:15	49.6	49.6	49.6	92	47.4	1	4	0	0.00	29.517 
21:20	49.6	49.6	49.6	92	47.4	2	5	292	0.00	29.519 
21:25	49.5	49.5	49.5	92	47.3	2	6	315	0.00	29.524 
21:30	49.5	49.5	49.5	91	47.0	2	11	338	0.00	29.529 
21:35	49.5	49.5	49.5	91	47.0	1	4	270	0.00	29.533 
21:40	49.5	49.5	49.5	91	47.0	1	6	338	0.00	29.534 
21:45	49.6	49.6	49.6	90	46.8	2	5	292	0.00	29.540 
21:50	49.6	49.6	49.6	90	46.8	2	6	292	0.00	29.545 
21:55	49.6	49.6	49.6	89	46.5	1	9	315	0.00	29.547 
22:00	49.6	49.6	49.6	89	46.5	1	4	292	0.00	29.548 
22:05	49.6	49.6	49.6	89	46.5	1	4	292	0.00	29.546 
22:10	49.8	49.8	49.8	88	46.4	1	4	315	0.00	29.548 
22:15	49.8	49.8	49.8	88	46.4	1	13	292	0.00	29.553 
22:20	49.9	49.9	49.9	87	46.2	2	6	270	0.00	29.558 
22:25	49.9	49.9	49.9	87	46.2	2	5	292	0.00	29.559 
22:30	49.9	49.9	49.9	86	45.9	1	4	338	0.00	29.561 
22:35	50.1	50.1	50.1	85	45.8	2	6	270	0.00	29.562 
22:40	50.1	50.1	50.1	84	45.5	2	7	270	0.00	29.566 
22:45	50.1	50.1	50.1	84	45.5	1	5	315	0.00	29.567 
22:50	50.2	50.2	50.2	84	45.6	2	6	292	0.00	29.567 
22:55	50.2	50.2	50.2	83	45.2	1	4	315	0.00	29.571 
23:00	50.2	50.2	50.2	83	45.2	1	4	315	0.00	29.570 
23:05	50.1	50.1	50.1	83	45.1	1	4	292	0.00	29.573 
23:10	50.1	50.1	50.1	83	45.1	1	6	292	0.00	29.574 
23:15	50.1	50.1	50.1	83	45.1	1	5	315	0.00	29.576 
23:20	50.1	50.1	50.1	83	45.1	1	3	292	0.00	29.580 
23:25	50.2	50.2	50.2	82	44.9	1	6	0	0.00	29.581 
23:30	50.2	50.2	50.2	82	44.9	2	5	315	0.00	29.584 
23:35	50.2	50.2	50.2	81	44.6	2	6	315	0.00	29.588 
23:40	50.2	50.2	50.2	81	44.6	1	5	292	0.00	29.591 
23:45	50.2	50.2	50.2	81	44.6	1	3	292	0.00	29.593 
23:50	50.2	50.2	50.2	81	44.6	1	4	292	0.00	29.595 
23:55	50.2	50.2	50.2	80	44.3	2	6	270	0.00	29.599 

CoCoRaHS
IN-AL-39
A2 Web Hosting
Creative Commons License
GoDaddy
Look for:

loaded 2017-12-13 19:39:30 • last modified 2010-11-18 10:43:29
Privacy PolicyDisclaimer
• wx.awcolley.com is powered by PmWiki v.2002016 •
• all content (unless otherwise noted) © 2017 A W Colley